sensor_id;sensor_type;location;lat;lon;timestamp;P1;durP1;ratioP1;P2;durP2;ratioP2
61938;SDS011;47897;50.322;18.892;2023-03-20T00:00:32;28.20;;;17.60;;
61938;SDS011;47897;50.322;18.892;2023-03-20T00:03:16;27.30;;;18.30;;
61938;SDS011;47897;50.322;18.892;2023-03-20T00:05:43;30.10;;;19.10;;
61938;SDS011;47897;50.322;18.892;2023-03-20T00:08:10;27.10;;;18.30;;
61938;SDS011;47897;50.322;18.892;2023-03-20T00:10:39;27.30;;;18.40;;
61938;SDS011;47897;50.322;18.892;2023-03-20T00:13:07;30.00;;;18.70;;
61938;SDS011;47897;50.322;18.892;2023-03-20T00:15:37;30.20;;;18.30;;
61938;SDS011;47897;50.322;18.892;2023-03-20T00:18:23;25.80;;;17.50;;
61938;SDS011;47897;50.322;18.892;2023-03-20T00:20:50;29.40;;;18.00;;
61938;SDS011;47897;50.322;18.892;2023-03-20T00:23:19;27.50;;;18.10;;
61938;SDS011;47897;50.322;18.892;2023-03-20T00:25:46;26.00;;;17.10;;
61938;SDS011;47897;50.322;18.892;2023-03-20T00:28:28;23.90;;;15.40;;
61938;SDS011;47897;50.322;18.892;2023-03-20T00:30:55;25.20;;;15.90;;
61938;SDS011;47897;50.322;18.892;2023-03-20T00:33:22;27.20;;;17.50;;
61938;SDS011;47897;50.322;18.892;2023-03-20T00:35:49;25.00;;;16.40;;
61938;SDS011;47897;50.322;18.892;2023-03-20T00:38:15;27.50;;;17.60;;
61938;SDS011;47897;50.322;18.892;2023-03-20T00:40:42;24.70;;;16.10;;
61938;SDS011;47897;50.322;18.892;2023-03-20T00:43:10;24.10;;;16.90;;
61938;SDS011;47897;50.322;18.892;2023-03-20T00:45:38;23.80;;;15.80;;
61938;SDS011;47897;50.322;18.892;2023-03-20T00:48:05;24.90;;;15.60;;
61938;SDS011;47897;50.322;18.892;2023-03-20T00:50:32;22.30;;;15.10;;
61938;SDS011;47897;50.322;18.892;2023-03-20T00:52:58;23.70;;;14.70;;
61938;SDS011;47897;50.322;18.892;2023-03-20T00:55:26;22.30;;;14.60;;
61938;SDS011;47897;50.322;18.892;2023-03-20T00:57:54;23.10;;;14.60;;
61938;SDS011;47897;50.322;18.892;2023-03-20T01:00:41;23.80;;;15.00;;
61938;SDS011;47897;50.322;18.892;2023-03-20T01:03:13;19.60;;;12.80;;
61938;SDS011;47897;50.322;18.892;2023-03-20T01:05:41;24.70;;;15.20;;
61938;SDS011;47897;50.322;18.892;2023-03-20T01:08:18;23.00;;;15.40;;
61938;SDS011;47897;50.322;18.892;2023-03-20T01:10:45;22.50;;;15.10;;
61938;SDS011;47897;50.322;18.892;2023-03-20T01:13:21;22.30;;;16.70;;
61938;SDS011;47897;50.322;18.892;2023-03-20T01:15:48;22.40;;;16.40;;
61938;SDS011;47897;50.322;18.892;2023-03-20T01:18:16;25.90;;;16.30;;
61938;SDS011;47897;50.322;18.892;2023-03-20T01:20:45;23.20;;;16.90;;
61938;SDS011;47897;50.322;18.892;2023-03-20T01:23:11;21.90;;;16.60;;
61938;SDS011;47897;50.322;18.892;2023-03-20T01:25:38;25.20;;;17.60;;
61938;SDS011;47897;50.322;18.892;2023-03-20T01:28:13;25.50;;;18.00;;
61938;SDS011;47897;50.322;18.892;2023-03-20T01:30:40;31.40;;;18.80;;
61938;SDS011;47897;50.322;18.892;2023-03-20T01:33:14;26.30;;;18.30;;
61938;SDS011;47897;50.322;18.892;2023-03-20T01:35:42;28.70;;;18.90;;
61938;SDS011;47897;50.322;18.892;2023-03-20T01:38:25;25.00;;;17.50;;
61938;SDS011;47897;50.322;18.892;2023-03-20T01:41:00;29.90;;;19.40;;
61938;SDS011;47897;50.322;18.892;2023-03-20T01:43:28;27.50;;;18.00;;
61938;SDS011;47897;50.322;18.892;2023-03-20T01:45:57;28.30;;;19.20;;
61938;SDS011;47897;50.322;18.892;2023-03-20T01:48:30;26.30;;;17.40;;
61938;SDS011;47897;50.322;18.892;2023-03-20T01:50:57;27.50;;;17.40;;
61938;SDS011;47897;50.322;18.892;2023-03-20T01:53:24;25.70;;;18.00;;
61938;SDS011;47897;50.322;18.892;2023-03-20T01:55:53;24.90;;;18.20;;
61938;SDS011;47897;50.322;18.892;2023-03-20T01:58:24;24.70;;;18.50;;
61938;SDS011;47897;50.322;18.892;2023-03-20T02:00:52;28.90;;;18.60;;
61938;SDS011;47897;50.322;18.892;2023-03-20T02:03:19;26.80;;;18.30;;
61938;SDS011;47897;50.322;18.892;2023-03-20T02:05:46;26.90;;;18.50;;
61938;SDS011;47897;50.322;18.892;2023-03-20T02:10:40;25.10;;;17.40;;
61938;SDS011;47897;50.322;18.892;2023-03-20T02:13:07;27.50;;;16.60;;
61938;SDS011;47897;50.322;18.892;2023-03-20T02:15:35;22.50;;;15.80;;
61938;SDS011;47897;50.322;18.892;2023-03-20T02:18:02;25.10;;;17.10;;
61938;SDS011;47897;50.322;18.892;2023-03-20T02:20:52;20.90;;;15.10;;
61938;SDS011;47897;50.322;18.892;2023-03-20T02:36:18;22.60;;;14.50;;
61938;SDS011;47897;50.322;18.892;2023-03-20T02:47:05;22.50;;;15.50;;
61938;SDS011;47897;50.322;18.892;2023-03-20T02:54:33;20.50;;;14.50;;
61938;SDS011;47897;50.322;18.892;2023-03-20T02:57:07;24.20;;;16.40;;
61938;SDS011;47897;50.322;18.892;2023-03-20T02:59:48;24.70;;;17.60;;
61938;SDS011;47897;50.322;18.892;2023-03-20T03:02:26;29.50;;;20.30;;
61938;SDS011;47897;50.322;18.892;2023-03-20T03:04:56;26.60;;;18.90;;
61938;SDS011;47897;50.322;18.892;2023-03-20T03:07:25;28.60;;;18.80;;
61938;SDS011;47897;50.322;18.892;2023-03-20T03:10:04;26.70;;;18.20;;
61938;SDS011;47897;50.322;18.892;2023-03-20T03:12:39;25.70;;;17.50;;
61938;SDS011;47897;50.322;18.892;2023-03-20T03:15:23;24.60;;;16.70;;
61938;SDS011;47897;50.322;18.892;2023-03-20T03:17:51;25.80;;;18.10;;
61938;SDS011;47897;50.322;18.892;2023-03-20T03:20:20;27.60;;;17.90;;
61938;SDS011;47897;50.322;18.892;2023-03-20T03:22:48;24.90;;;17.40;;
61938;SDS011;47897;50.322;18.892;2023-03-20T03:25:15;25.60;;;19.00;;
61938;SDS011;47897;50.322;18.892;2023-03-20T03:27:42;25.10;;;18.50;;
61938;SDS011;47897;50.322;18.892;2023-03-20T03:32:41;25.50;;;18.10;;
61938;SDS011;47897;50.322;18.892;2023-03-20T03:35:12;23.00;;;16.80;;
61938;SDS011;47897;50.322;18.892;2023-03-20T03:40:10;21.50;;;15.90;;
61938;SDS011;47897;50.322;18.892;2023-03-20T03:42:42;21.80;;;14.50;;
61938;SDS011;47897;50.322;18.892;2023-03-20T03:45:12;23.30;;;15.60;;
61938;SDS011;47897;50.322;18.892;2023-03-20T03:47:44;19.70;;;14.60;;
61938;SDS011;47897;50.322;18.892;2023-03-20T03:52:45;22.80;;;16.70;;
61938;SDS011;47897;50.322;18.892;2023-03-20T03:55:13;21.70;;;16.70;;
61938;SDS011;47897;50.322;18.892;2023-03-20T03:57:45;23.80;;;16.80;;
61938;SDS011;47897;50.322;18.892;2023-03-20T04:00:15;24.60;;;16.70;;
61938;SDS011;47897;50.322;18.892;2023-03-20T04:02:43;24.50;;;16.30;;
61938;SDS011;47897;50.322;18.892;2023-03-20T04:05:10;24.60;;;17.20;;
61938;SDS011;47897;50.322;18.892;2023-03-20T04:07:38;20.40;;;16.00;;
61938;SDS011;47897;50.322;18.892;2023-03-20T04:10:06;22.70;;;16.30;;
61938;SDS011;47897;50.322;18.892;2023-03-20T04:12:34;26.70;;;18.60;;
61938;SDS011;47897;50.322;18.892;2023-03-20T04:15:01;30.10;;;19.60;;
61938;SDS011;47897;50.322;18.892;2023-03-20T04:17:28;30.00;;;19.40;;
61938;SDS011;47897;50.322;18.892;2023-03-20T04:19:55;27.20;;;19.20;;
61938;SDS011;47897;50.322;18.892;2023-03-20T04:22:21;27.50;;;19.40;;
61938;SDS011;47897;50.322;18.892;2023-03-20T04:24:48;22.00;;;16.80;;
61938;SDS011;47897;50.322;18.892;2023-03-20T04:27:15;25.70;;;19.50;;
61938;SDS011;47897;50.322;18.892;2023-03-20T04:29:42;28.40;;;18.80;;
61938;SDS011;47897;50.322;18.892;2023-03-20T04:32:10;28.20;;;18.80;;
61938;SDS011;47897;50.322;18.892;2023-03-20T04:34:36;27.40;;;18.50;;
61938;SDS011;47897;50.322;18.892;2023-03-20T04:37:03;29.30;;;19.50;;
61938;SDS011;47897;50.322;18.892;2023-03-20T04:39:30;27.60;;;19.00;;
61938;SDS011;47897;50.322;18.892;2023-03-20T04:41:57;28.10;;;19.20;;
61938;SDS011;47897;50.322;18.892;2023-03-20T04:44:24;29.00;;;19.50;;
61938;SDS011;47897;50.322;18.892;2023-03-20T04:46:51;26.40;;;18.40;;
61938;SDS011;47897;50.322;18.892;2023-03-20T04:49:17;30.20;;;18.90;;
61938;SDS011;47897;50.322;18.892;2023-03-20T04:51:44;30.50;;;19.20;;
61938;SDS011;47897;50.322;18.892;2023-03-20T04:54:10;22.90;;;17.50;;
61938;SDS011;47897;50.322;18.892;2023-03-20T04:56:37;27.10;;;18.70;;
61938;SDS011;47897;50.322;18.892;2023-03-20T04:59:04;25.40;;;18.90;;
61938;SDS011;47897;50.322;18.892;2023-03-20T05:01:31;28.20;;;18.40;;
61938;SDS011;47897;50.322;18.892;2023-03-20T05:03:57;27.90;;;19.40;;
61938;SDS011;47897;50.322;18.892;2023-03-20T05:06:26;26.20;;;18.20;;
61938;SDS011;47897;50.322;18.892;2023-03-20T05:08:53;26.60;;;18.20;;
61938;SDS011;47897;50.322;18.892;2023-03-20T05:11:20;29.50;;;19.60;;
61938;SDS011;47897;50.322;18.892;2023-03-20T05:13:47;29.40;;;20.00;;
61938;SDS011;47897;50.322;18.892;2023-03-20T05:16:14;28.70;;;19.50;;
61938;SDS011;47897;50.322;18.892;2023-03-20T05:18:40;30.80;;;19.50;;
61938;SDS011;47897;50.322;18.892;2023-03-20T05:21:07;27.00;;;19.50;;
61938;SDS011;47897;50.322;18.892;2023-03-20T05:23:34;32.00;;;19.50;;
61938;SDS011;47897;50.322;18.892;2023-03-20T05:26:01;27.30;;;19.40;;
61938;SDS011;47897;50.322;18.892;2023-03-20T05:28:28;30.80;;;20.80;;
61938;SDS011;47897;50.322;18.892;2023-03-20T05:30:54;28.60;;;21.60;;
61938;SDS011;47897;50.322;18.892;2023-03-20T05:33:21;29.90;;;20.30;;
61938;SDS011;47897;50.322;18.892;2023-03-20T05:35:48;27.70;;;18.90;;
61938;SDS011;47897;50.322;18.892;2023-03-20T05:38:14;31.30;;;22.00;;
61938;SDS011;47897;50.322;18.892;2023-03-20T05:40:41;27.90;;;21.00;;
61938;SDS011;47897;50.322;18.892;2023-03-20T05:43:08;32.60;;;22.00;;
61938;SDS011;47897;50.322;18.892;2023-03-20T05:45:34;28.20;;;20.70;;
61938;SDS011;47897;50.322;18.892;2023-03-20T05:48:01;30.40;;;20.30;;
61938;SDS011;47897;50.322;18.892;2023-03-20T05:50:27;29.10;;;20.40;;
61938;SDS011;47897;50.322;18.892;2023-03-20T05:52:54;32.50;;;21.00;;
61938;SDS011;47897;50.322;18.892;2023-03-20T05:55:21;27.90;;;21.10;;
61938;SDS011;47897;50.322;18.892;2023-03-20T05:57:47;32.20;;;20.50;;
61938;SDS011;47897;50.322;18.892;2023-03-20T06:00:14;30.10;;;20.90;;
61938;SDS011;47897;50.322;18.892;2023-03-20T06:02:41;34.10;;;21.20;;
61938;SDS011;47897;50.322;18.892;2023-03-20T06:05:08;31.90;;;21.10;;
61938;SDS011;47897;50.322;18.892;2023-03-20T06:07:35;33.90;;;22.50;;
61938;SDS011;47897;50.322;18.892;2023-03-20T06:10:01;31.30;;;20.50;;
61938;SDS011;47897;50.322;18.892;2023-03-20T06:12:28;34.90;;;19.50;;
61938;SDS011;47897;50.322;18.892;2023-03-20T06:14:55;27.30;;;18.90;;
61938;SDS011;47897;50.322;18.892;2023-03-20T06:17:21;24.80;;;18.10;;
61938;SDS011;47897;50.322;18.892;2023-03-20T06:19:48;26.10;;;18.50;;
61938;SDS011;47897;50.322;18.892;2023-03-20T06:22:15;23.20;;;17.50;;
61938;SDS011;47897;50.322;18.892;2023-03-20T06:24:41;29.30;;;19.20;;
61938;SDS011;47897;50.322;18.892;2023-03-20T06:27:08;28.50;;;17.30;;
61938;SDS011;47897;50.322;18.892;2023-03-20T06:29:35;30.30;;;19.20;;
61938;SDS011;47897;50.322;18.892;2023-03-20T06:32:02;26.50;;;18.30;;
61938;SDS011;47897;50.322;18.892;2023-03-20T06:34:29;28.30;;;21.10;;
61938;SDS011;47897;50.322;18.892;2023-03-20T06:36:55;30.50;;;20.70;;
61938;SDS011;47897;50.322;18.892;2023-03-20T06:39:22;29.90;;;19.80;;
61938;SDS011;47897;50.322;18.892;2023-03-20T06:41:49;28.10;;;19.00;;
61938;SDS011;47897;50.322;18.892;2023-03-20T06:44:15;28.80;;;20.20;;
61938;SDS011;47897;50.322;18.892;2023-03-20T06:46:42;22.80;;;17.70;;
61938;SDS011;47897;50.322;18.892;2023-03-20T06:49:09;20.10;;;16.20;;
61938;SDS011;47897;50.322;18.892;2023-03-20T06:51:36;27.20;;;19.40;;
61938;SDS011;47897;50.322;18.892;2023-03-20T06:54:02;29.10;;;19.30;;
61938;SDS011;47897;50.322;18.892;2023-03-20T06:56:29;26.00;;;19.70;;
61938;SDS011;47897;50.322;18.892;2023-03-20T06:58:57;26.60;;;19.50;;
61938;SDS011;47897;50.322;18.892;2023-03-20T07:01:24;23.90;;;18.70;;
61938;SDS011;47897;50.322;18.892;2023-03-20T07:03:51;24.20;;;18.10;;
61938;SDS011;47897;50.322;18.892;2023-03-20T07:06:18;26.80;;;19.50;;
61938;SDS011;47897;50.322;18.892;2023-03-20T07:08:45;25.90;;;18.30;;
61938;SDS011;47897;50.322;18.892;2023-03-20T07:11:12;23.60;;;18.60;;
61938;SDS011;47897;50.322;18.892;2023-03-20T07:13:39;25.40;;;20.20;;
61938;SDS011;47897;50.322;18.892;2023-03-20T07:16:07;25.20;;;18.70;;
61938;SDS011;47897;50.322;18.892;2023-03-20T07:18:34;26.30;;;19.30;;
61938;SDS011;47897;50.322;18.892;2023-03-20T07:21:01;26.50;;;20.30;;
61938;SDS011;47897;50.322;18.892;2023-03-20T07:23:28;28.00;;;19.60;;
61938;SDS011;47897;50.322;18.892;2023-03-20T07:25:56;30.10;;;20.20;;
61938;SDS011;47897;50.322;18.892;2023-03-20T07:28:23;25.50;;;20.50;;
61938;SDS011;47897;50.322;18.892;2023-03-20T07:30:52;29.70;;;20.20;;
61938;SDS011;47897;50.322;18.892;2023-03-20T07:33:18;29.40;;;20.60;;
61938;SDS011;47897;50.322;18.892;2023-03-20T07:35:46;26.60;;;19.40;;
61938;SDS011;47897;50.322;18.892;2023-03-20T07:38:16;27.80;;;20.70;;
61938;SDS011;47897;50.322;18.892;2023-03-20T07:40:43;25.40;;;18.60;;
61938;SDS011;47897;50.322;18.892;2023-03-20T07:43:10;25.60;;;19.00;;
61938;SDS011;47897;50.322;18.892;2023-03-20T07:45:37;27.60;;;19.60;;
61938;SDS011;47897;50.322;18.892;2023-03-20T07:48:04;28.10;;;21.80;;
61938;SDS011;47897;50.322;18.892;2023-03-20T07:50:30;28.20;;;17.60;;
61938;SDS011;47897;50.322;18.892;2023-03-20T07:52:57;30.80;;;22.40;;
61938;SDS011;47897;50.322;18.892;2023-03-20T07:55:24;32.40;;;23.00;;
61938;SDS011;47897;50.322;18.892;2023-03-20T07:57:50;28.60;;;20.50;;
61938;SDS011;47897;50.322;18.892;2023-03-20T08:00:18;28.80;;;21.30;;
61938;SDS011;47897;50.322;18.892;2023-03-20T08:02:45;25.00;;;19.50;;
61938;SDS011;47897;50.322;18.892;2023-03-20T08:05:12;31.20;;;20.10;;
61938;SDS011;47897;50.322;18.892;2023-03-20T08:07:39;30.40;;;20.00;;
61938;SDS011;47897;50.322;18.892;2023-03-20T08:10:05;26.10;;;17.70;;
61938;SDS011;47897;50.322;18.892;2023-03-20T08:12:32;33.20;;;22.70;;
61938;SDS011;47897;50.322;18.892;2023-03-20T08:14:59;30.40;;;21.30;;
61938;SDS011;47897;50.322;18.892;2023-03-20T08:17:25;30.00;;;23.00;;
61938;SDS011;47897;50.322;18.892;2023-03-20T08:19:52;32.80;;;22.60;;
61938;SDS011;47897;50.322;18.892;2023-03-20T08:22:19;31.30;;;22.30;;
61938;SDS011;47897;50.322;18.892;2023-03-20T08:24:46;34.30;;;23.00;;
61938;SDS011;47897;50.322;18.892;2023-03-20T08:27:12;27.00;;;19.20;;
61938;SDS011;47897;50.322;18.892;2023-03-20T08:29:39;29.50;;;20.50;;
61938;SDS011;47897;50.322;18.892;2023-03-20T08:32:05;24.20;;;18.90;;
61938;SDS011;47897;50.322;18.892;2023-03-20T08:34:32;33.10;;;21.90;;
61938;SDS011;47897;50.322;18.892;2023-03-20T08:37:01;33.90;;;23.20;;
61938;SDS011;47897;50.322;18.892;2023-03-20T08:39:27;31.20;;;22.70;;
61938;SDS011;47897;50.322;18.892;2023-03-20T08:41:54;34.10;;;21.60;;
61938;SDS011;47897;50.322;18.892;2023-03-20T08:44:21;32.60;;;22.60;;
61938;SDS011;47897;50.322;18.892;2023-03-20T08:46:47;31.50;;;21.60;;
61938;SDS011;47897;50.322;18.892;2023-03-20T08:49:14;30.30;;;21.60;;
61938;SDS011;47897;50.322;18.892;2023-03-20T08:51:41;29.80;;;22.10;;
61938;SDS011;47897;50.322;18.892;2023-03-20T08:54:08;33.60;;;22.90;;
61938;SDS011;47897;50.322;18.892;2023-03-20T08:56:35;33.20;;;21.60;;
61938;SDS011;47897;50.322;18.892;2023-03-20T08:59:01;29.30;;;21.60;;
61938;SDS011;47897;50.322;18.892;2023-03-20T09:01:28;30.90;;;21.50;;
61938;SDS011;47897;50.322;18.892;2023-03-20T09:03:54;25.20;;;17.00;;
61938;SDS011;47897;50.322;18.892;2023-03-20T09:06:21;32.00;;;20.80;;
61938;SDS011;47897;50.322;18.892;2023-03-20T09:08:48;33.80;;;22.90;;
61938;SDS011;47897;50.322;18.892;2023-03-20T09:11:15;35.10;;;24.70;;
61938;SDS011;47897;50.322;18.892;2023-03-20T09:13:41;32.60;;;24.40;;
61938;SDS011;47897;50.322;18.892;2023-03-20T09:16:08;34.70;;;25.50;;
61938;SDS011;47897;50.322;18.892;2023-03-20T09:18:35;31.70;;;24.50;;
61938;SDS011;47897;50.322;18.892;2023-03-20T09:21:02;29.30;;;20.50;;
61938;SDS011;47897;50.322;18.892;2023-03-20T09:23:29;31.60;;;22.60;;
61938;SDS011;47897;50.322;18.892;2023-03-20T09:25:57;33.30;;;24.00;;
61938;SDS011;47897;50.322;18.892;2023-03-20T09:28:24;41.20;;;28.40;;
61938;SDS011;47897;50.322;18.892;2023-03-20T09:30:53;38.40;;;28.60;;
61938;SDS011;47897;50.322;18.892;2023-03-20T09:33:20;24.80;;;15.40;;
61938;SDS011;47897;50.322;18.892;2023-03-20T09:35:47;34.80;;;24.80;;
61938;SDS011;47897;50.322;18.892;2023-03-20T09:38:14;33.10;;;25.50;;
61938;SDS011;47897;50.322;18.892;2023-03-20T09:43:17;36.00;;;25.90;;
61938;SDS011;47897;50.322;18.892;2023-03-20T09:48:22;36.20;;;27.20;;
61938;SDS011;47897;50.322;18.892;2023-03-20T09:53:45;36.90;;;25.90;;
61938;SDS011;47897;50.322;18.892;2023-03-20T09:56:14;37.60;;;26.30;;
61938;SDS011;47897;50.322;18.892;2023-03-20T09:58:43;38.90;;;29.30;;
61938;SDS011;47897;50.322;18.892;2023-03-20T10:01:12;41.00;;;28.60;;
61938;SDS011;47897;50.322;18.892;2023-03-20T10:06:13;37.00;;;29.40;;
61938;SDS011;47897;50.322;18.892;2023-03-20T10:08:41;40.60;;;27.80;;
61938;SDS011;47897;50.322;18.892;2023-03-20T10:21:36;38.40;;;30.20;;
61938;SDS011;47897;50.322;18.892;2023-03-20T10:24:08;40.50;;;30.50;;
61938;SDS011;47897;50.322;18.892;2023-03-20T10:26:37;39.00;;;27.60;;
61938;SDS011;47897;50.322;18.892;2023-03-20T10:29:17;43.60;;;29.20;;
61938;SDS011;47897;50.322;18.892;2023-03-20T10:31:51;42.80;;;29.50;;
61938;SDS011;47897;50.322;18.892;2023-03-20T10:41:57;39.20;;;27.50;;
61938;SDS011;47897;50.322;18.892;2023-03-20T10:46:54;40.30;;;30.00;;
61938;SDS011;47897;50.322;18.892;2023-03-20T10:52:20;39.50;;;28.20;;
61938;SDS011;47897;50.322;18.892;2023-03-20T10:54:49;36.90;;;27.90;;
61938;SDS011;47897;50.322;18.892;2023-03-20T10:57:25;30.00;;;22.60;;
61938;SDS011;47897;50.322;18.892;2023-03-20T10:59:53;35.10;;;27.00;;
61938;SDS011;47897;50.322;18.892;2023-03-20T11:02:23;35.30;;;26.30;;
61938;SDS011;47897;50.322;18.892;2023-03-20T11:04:50;31.00;;;22.30;;
61938;SDS011;47897;50.322;18.892;2023-03-20T11:12:35;30.70;;;25.50;;
61938;SDS011;47897;50.322;18.892;2023-03-20T11:15:04;32.70;;;24.70;;
61938;SDS011;47897;50.322;18.892;2023-03-20T11:17:39;29.30;;;22.10;;
61938;SDS011;47897;50.322;18.892;2023-03-20T11:20:07;34.40;;;24.40;;
61938;SDS011;47897;50.322;18.892;2023-03-20T11:22:33;20.80;;;13.80;;
61938;SDS011;47897;50.322;18.892;2023-03-20T11:25:02;32.70;;;25.70;;
61938;SDS011;47897;50.322;18.892;2023-03-20T11:27:29;32.80;;;24.20;;
61938;SDS011;47897;50.322;18.892;2023-03-20T11:29:57;32.70;;;22.90;;
61938;SDS011;47897;50.322;18.892;2023-03-20T11:32:32;31.00;;;24.60;;
61938;SDS011;47897;50.322;18.892;2023-03-20T11:37:45;31.70;;;23.20;;
61938;SDS011;47897;50.322;18.892;2023-03-20T11:40:14;33.20;;;25.40;;
61938;SDS011;47897;50.322;18.892;2023-03-20T11:42:52;31.70;;;23.30;;
61938;SDS011;47897;50.322;18.892;2023-03-20T11:45:20;30.50;;;22.00;;
61938;SDS011;47897;50.322;18.892;2023-03-20T11:47:48;32.80;;;23.80;;
61938;SDS011;47897;50.322;18.892;2023-03-20T11:52:52;31.20;;;22.60;;
61938;SDS011;47897;50.322;18.892;2023-03-20T11:55:23;41.80;;;26.10;;
61938;SDS011;47897;50.322;18.892;2023-03-20T11:57:54;33.80;;;22.90;;
61938;SDS011;47897;50.322;18.892;2023-03-20T12:00:22;30.10;;;22.30;;
61938;SDS011;47897;50.322;18.892;2023-03-20T12:02:49;30.90;;;22.30;;
61938;SDS011;47897;50.322;18.892;2023-03-20T12:07:49;31.50;;;22.30;;
61938;SDS011;47897;50.322;18.892;2023-03-20T12:10:16;32.00;;;20.90;;
61938;SDS011;47897;50.322;18.892;2023-03-20T12:12:49;29.90;;;23.00;;
61938;SDS011;47897;50.322;18.892;2023-03-20T12:15:18;26.80;;;19.50;;
61938;SDS011;47897;50.322;18.892;2023-03-20T12:20:33;31.20;;;19.10;;
61938;SDS011;47897;50.322;18.892;2023-03-20T12:28:05;28.30;;;20.50;;
61938;SDS011;47897;50.322;18.892;2023-03-20T12:36:01;28.40;;;19.80;;
61938;SDS011;47897;50.322;18.892;2023-03-20T12:38:30;20.40;;;14.90;;
61938;SDS011;47897;50.322;18.892;2023-03-20T13:04:58;27.10;;;16.90;;
61938;SDS011;47897;50.322;18.892;2023-03-20T13:07:06;33.60;;;22.80;;
61938;SDS011;47897;50.322;18.892;2023-03-20T13:14:51;32.50;;;23.00;;
61938;SDS011;47897;50.322;18.892;2023-03-20T13:17:37;36.40;;;24.20;;
61938;SDS011;47897;50.322;18.892;2023-03-20T13:22:40;36.30;;;25.00;;
61938;SDS011;47897;50.322;18.892;2023-03-20T13:31:47;30.20;;;21.00;;
61938;SDS011;47897;50.322;18.892;2023-03-20T13:38:58;23.50;;;15.30;;
61938;SDS011;47897;50.322;18.892;2023-03-20T13:41:26;33.10;;;20.50;;
61938;SDS011;47897;50.322;18.892;2023-03-20T13:43:54;33.50;;;21.80;;
61938;SDS011;47897;50.322;18.892;2023-03-20T13:46:23;34.50;;;22.40;;
61938;SDS011;47897;50.322;18.892;2023-03-20T13:48:51;35.70;;;23.40;;
61938;SDS011;47897;50.322;18.892;2023-03-20T13:51:30;35.10;;;22.20;;
61938;SDS011;47897;50.322;18.892;2023-03-20T13:56:39;35.60;;;24.50;;
61938;SDS011;47897;50.322;18.892;2023-03-20T14:01:39;33.50;;;23.30;;
61938;SDS011;47897;50.322;18.892;2023-03-20T14:04:11;34.00;;;22.40;;
61938;SDS011;47897;50.322;18.892;2023-03-20T14:06:44;39.30;;;24.00;;
61938;SDS011;47897;50.322;18.892;2023-03-20T14:09:27;38.00;;;24.60;;
61938;SDS011;47897;50.322;18.892;2023-03-20T14:11:59;35.40;;;22.60;;
61938;SDS011;47897;50.322;18.892;2023-03-20T14:14:30;37.60;;;24.10;;
61938;SDS011;47897;50.322;18.892;2023-03-20T14:19:27;44.00;;;28.00;;
61938;SDS011;47897;50.322;18.892;2023-03-20T14:21:57;36.70;;;25.50;;
61938;SDS011;47897;50.322;18.892;2023-03-20T14:24:25;41.30;;;26.30;;
61938;SDS011;47897;50.322;18.892;2023-03-20T14:26:55;45.30;;;27.90;;
61938;SDS011;47897;50.322;18.892;2023-03-20T14:29:31;40.00;;;26.80;;
61938;SDS011;47897;50.322;18.892;2023-03-20T14:34:43;41.70;;;26.50;;
61938;SDS011;47897;50.322;18.892;2023-03-20T14:37:32;39.50;;;26.40;;
61938;SDS011;47897;50.322;18.892;2023-03-20T14:40:14;45.20;;;29.70;;
61938;SDS011;47897;50.322;18.892;2023-03-20T14:42:47;46.70;;;28.60;;
61938;SDS011;47897;50.322;18.892;2023-03-20T14:47:53;50.80;;;31.70;;
61938;SDS011;47897;50.322;18.892;2023-03-20T14:50:29;53.70;;;33.30;;
61938;SDS011;47897;50.322;18.892;2023-03-20T14:55:45;57.70;;;36.80;;
61938;SDS011;47897;50.322;18.892;2023-03-20T15:00:44;61.90;;;38.10;;
61938;SDS011;47897;50.322;18.892;2023-03-20T15:03:15;78.20;;;44.80;;
61938;SDS011;47897;50.322;18.892;2023-03-20T15:05:43;82.70;;;47.40;;
61938;SDS011;47897;50.322;18.892;2023-03-20T15:08:13;93.40;;;55.30;;
61938;SDS011;47897;50.322;18.892;2023-03-20T15:10:46;78.70;;;48.80;;
61938;SDS011;47897;50.322;18.892;2023-03-20T15:13:15;70.30;;;44.70;;
61938;SDS011;47897;50.322;18.892;2023-03-20T15:15:55;86.00;;;48.50;;
61938;SDS011;47897;50.322;18.892;2023-03-20T15:18:23;89.70;;;52.40;;
61938;SDS011;47897;50.322;18.892;2023-03-20T15:20:50;83.60;;;51.80;;
61938;SDS011;47897;50.322;18.892;2023-03-20T15:23:17;85.60;;;53.90;;
61938;SDS011;47897;50.322;18.892;2023-03-20T15:25:45;81.60;;;51.90;;
61938;SDS011;47897;50.322;18.892;2023-03-20T15:28:19;92.90;;;57.50;;
61938;SDS011;47897;50.322;18.892;2023-03-20T15:30:48;71.30;;;45.30;;
61938;SDS011;47897;50.322;18.892;2023-03-20T15:33:17;68.70;;;39.40;;
61938;SDS011;47897;50.322;18.892;2023-03-20T15:35:45;73.60;;;46.50;;
61938;SDS011;47897;50.322;18.892;2023-03-20T15:38:13;70.90;;;41.00;;
61938;SDS011;47897;50.322;18.892;2023-03-20T15:40:40;77.60;;;42.80;;
61938;SDS011;47897;50.322;18.892;2023-03-20T15:43:12;77.70;;;47.60;;
61938;SDS011;47897;50.322;18.892;2023-03-20T15:45:40;90.40;;;48.90;;
61938;SDS011;47897;50.322;18.892;2023-03-20T15:48:12;90.60;;;52.40;;
61938;SDS011;47897;50.322;18.892;2023-03-20T15:50:39;90.50;;;48.90;;
61938;SDS011;47897;50.322;18.892;2023-03-20T15:53:07;94.80;;;51.40;;
61938;SDS011;47897;50.322;18.892;2023-03-20T15:55:36;106.10;;;54.70;;
61938;SDS011;47897;50.322;18.892;2023-03-20T15:58:03;92.90;;;50.60;;
61938;SDS011;47897;50.322;18.892;2023-03-20T16:00:31;95.20;;;53.20;;
61938;SDS011;47897;50.322;18.892;2023-03-20T16:03:03;105.70;;;57.60;;
61938;SDS011;47897;50.322;18.892;2023-03-20T16:05:30;115.40;;;62.30;;
61938;SDS011;47897;50.322;18.892;2023-03-20T16:08:10;116.10;;;63.50;;
61938;SDS011;47897;50.322;18.892;2023-03-20T16:10:39;129.10;;;70.40;;
61938;SDS011;47897;50.322;18.892;2023-03-20T16:13:09;115.90;;;64.00;;
61938;SDS011;47897;50.322;18.892;2023-03-20T16:15:37;119.80;;;65.90;;
61938;SDS011;47897;50.322;18.892;2023-03-20T16:18:04;129.20;;;73.10;;
61938;SDS011;47897;50.322;18.892;2023-03-20T16:20:33;122.30;;;67.30;;
61938;SDS011;47897;50.322;18.892;2023-03-20T16:23:02;102.10;;;53.20;;
61938;SDS011;47897;50.322;18.892;2023-03-20T16:25:30;76.50;;;42.80;;
61938;SDS011;47897;50.322;18.892;2023-03-20T16:27:57;77.70;;;42.70;;
61938;SDS011;47897;50.322;18.892;2023-03-20T16:30:25;80.10;;;44.30;;
61938;SDS011;47897;50.322;18.892;2023-03-20T16:32:54;81.70;;;42.80;;
61938;SDS011;47897;50.322;18.892;2023-03-20T16:35:25;80.80;;;43.30;;
61938;SDS011;47897;50.322;18.892;2023-03-20T16:37:54;82.20;;;43.20;;
61938;SDS011;47897;50.322;18.892;2023-03-20T16:40:34;87.50;;;47.60;;
61938;SDS011;47897;50.322;18.892;2023-03-20T16:43:06;111.80;;;58.60;;
61938;SDS011;47897;50.322;18.892;2023-03-20T16:45:33;97.40;;;56.40;;
61938;SDS011;47897;50.322;18.892;2023-03-20T16:50:44;101.10;;;53.20;;
61938;SDS011;47897;50.322;18.892;2023-03-20T16:53:14;116.50;;;59.00;;
61938;SDS011;47897;50.322;18.892;2023-03-20T16:55:48;117.50;;;61.40;;
61938;SDS011;47897;50.322;18.892;2023-03-20T16:58:17;172.70;;;84.60;;